createdAt,value
2022-11-08T00:00:01.187Z,42.63
2022-11-08T00:01:23.832Z,43.30
2022-11-08T00:02:27.886Z,41.75
2022-11-08T00:03:35.797Z,44.22
2022-11-08T00:04:39.655Z,45.25
2022-11-08T00:06:00.347Z,43.42
2022-11-08T00:07:21.023Z,46.03
2022-11-08T00:08:41.873Z,47.72
2022-11-08T00:10:05.625Z,46.42
2022-11-08T00:11:26.824Z,46.58
2022-11-08T00:12:47.820Z,43.72
2022-11-08T00:14:00.658Z,42.92
2022-11-08T00:15:05.254Z,47.33
2022-11-08T00:16:09.014Z,46.28
2022-11-08T00:17:19.679Z,45.95
2022-11-08T00:18:23.205Z,49.35
2022-11-08T00:19:32.751Z,41.75
2022-11-08T00:20:37.911Z,44.63
2022-11-08T00:21:40.997Z,44.60
2022-11-08T00:22:43.087Z,42.38
2022-11-08T00:23:46.882Z,40.05
2022-11-08T00:24:49.251Z,49.03
2022-11-08T00:25:56.569Z,43.17
2022-11-08T00:26:58.668Z,41.92
2022-11-08T00:28:02.668Z,44.13
2022-11-08T00:29:05.709Z,47.20
2022-11-08T00:30:08.380Z,40.72
2022-11-08T00:31:11.475Z,47.50
2022-11-08T00:32:20.970Z,43.60
2022-11-08T00:33:24.063Z,44.00
2022-11-08T00:34:26.648Z,38.45
2022-11-08T00:35:29.089Z,43.05
2022-11-08T00:36:33.500Z,41.53
2022-11-08T00:37:36.034Z,44.13
2022-11-08T00:38:44.520Z,43.33
2022-11-08T00:39:47.584Z,38.65
2022-11-08T00:40:50.259Z,39.28
2022-11-08T00:41:54.322Z,41.25
2022-11-08T00:42:57.077Z,43.33
2022-11-08T00:44:00.122Z,42.30
2022-11-08T00:45:04.444Z,39.55
2022-11-08T00:46:06.887Z,39.90
2022-11-08T00:47:19.975Z,43.20
2022-11-08T00:48:23.103Z,40.63
2022-11-08T00:49:26.124Z,42.13
2022-11-08T00:50:32.734Z,43.42
2022-11-08T00:51:40.157Z,42.33
2022-11-08T00:52:47.206Z,43.70
2022-11-08T00:53:53.637Z,41.10
2022-11-08T00:54:57.766Z,43.00
2022-11-08T00:56:05.511Z,46.10
2022-11-08T00:57:08.510Z,39.10
2022-11-08T00:58:12.987Z,43.83
2022-11-08T00:59:18.595Z,39.90
2022-11-08T01:00:20.623Z,40.22
2022-11-08T01:01:23.121Z,38.20
2022-11-08T01:02:25.601Z,40.88
2022-11-08T01:03:27.638Z,39.13
2022-11-08T01:04:32.496Z,40.17
2022-11-08T01:05:37.924Z,39.10
2022-11-08T01:06:42.624Z,42.13
2022-11-08T01:07:46.119Z,40.05
2022-11-08T01:08:51.693Z,39.88
2022-11-08T01:09:55.890Z,37.83
2022-11-08T01:11:03.975Z,39.70
2022-11-08T01:12:06.315Z,37.22
2022-11-08T01:13:09.698Z,38.22
2022-11-08T01:14:13.789Z,37.92
2022-11-08T01:15:22.065Z,41.30
2022-11-08T01:16:36.838Z,43.15
2022-11-08T01:17:56.519Z,41.78
2022-11-08T01:19:01.691Z,41.58
2022-11-08T01:20:05.928Z,40.75
2022-11-08T01:21:10.596Z,39.20
2022-11-08T01:22:15.713Z,36.72
2022-11-08T01:23:21.802Z,33.10
2022-11-08T01:24:26.047Z,34.08
2022-11-08T01:25:33.382Z,35.83
2022-11-08T01:26:40.934Z,34.05
2022-11-08T01:27:49.273Z,32.60
2022-11-08T01:28:52.320Z,35.67
2022-11-08T01:29:54.346Z,35.90
2022-11-08T01:30:58.288Z,34.85
2022-11-08T01:32:03.305Z,35.45
2022-11-08T01:33:07.323Z,33.30
2022-11-08T01:34:09.293Z,32.67
2022-11-08T01:35:15.209Z,31.10
2022-11-08T01:36:20.592Z,30.95
2022-11-08T01:37:24.063Z,29.85
2022-11-08T01:38:28.139Z,34.03
2022-11-08T01:39:34.320Z,33.13
2022-11-08T01:40:47.540Z,33.10
2022-11-08T01:41:49.943Z,33.38
2022-11-08T01:42:54.216Z,33.17
2022-11-08T01:43:58.511Z,32.50
2022-11-08T01:45:11.839Z,29.20
2022-11-08T01:46:20.847Z,33.15
2022-11-08T01:47:23.529Z,36.13
2022-11-08T01:48:28.404Z,33.28
2022-11-08T01:49:46.235Z,34.53
2022-11-08T01:50:48.661Z,32.22
2022-11-08T01:52:11.331Z,33.30
2022-11-08T01:53:13.921Z,35.38
2022-11-08T01:54:30.582Z,32.65
2022-11-08T01:55:37.023Z,41.45
2022-11-08T01:56:41.884Z,35.55
2022-11-08T01:57:59.288Z,30.20
2022-11-08T01:59:11.653Z,33.97
2022-11-08T02:00:14.519Z,32.67
2022-11-08T02:01:17.081Z,31.33
2022-11-08T02:02:20.454Z,33.83
2022-11-08T02:03:23.547Z,31.25
2022-11-08T02:04:25.672Z,32.28
2022-11-08T02:05:31.015Z,35.75
2022-11-08T02:06:38.445Z,35.55
2022-11-08T02:07:41.199Z,34.58
2022-11-08T02:09:01.515Z,35.55
2022-11-08T02:10:13.053Z,32.85
2022-11-08T02:11:18.397Z,41.10
2022-11-08T02:12:34.692Z,33.72
2022-11-08T02:14:06.372Z,35.15
2022-11-08T02:15:10.719Z,39.15
2022-11-08T02:16:22.186Z,32.33
2022-11-08T02:17:45.093Z,35.60
2022-11-08T02:18:50.377Z,35.90
2022-11-08T02:23:26.500Z,33.45
2022-11-08T02:24:42.633Z,38.88
2022-11-08T02:25:49.465Z,30.55
2022-11-08T02:26:53.433Z,33.42
2022-11-08T02:28:47.694Z,36.75
2022-11-08T02:30:09.406Z,35.97
2022-11-08T02:36:24.948Z,39.33
2022-11-08T02:37:43.231Z,38.88
2022-11-08T02:38:51.186Z,40.22
2022-11-08T02:39:55.658Z,41.88
2022-11-08T02:41:04.506Z,41.85
2022-11-08T02:42:24.795Z,41.78
2022-11-08T02:43:45.420Z,36.53
2022-11-08T02:45:03.768Z,41.20
2022-11-08T02:46:48.528Z,41.15
2022-11-08T02:51:23.771Z,39.35
2022-11-08T02:54:21.921Z,38.10
2022-11-08T02:55:44.048Z,34.25
2022-11-08T02:56:56.712Z,35.95
2022-11-08T03:04:21.756Z,40.17
2022-11-08T03:05:43.899Z,43.22
2022-11-08T03:06:54.678Z,34.42
2022-11-08T03:10:08.182Z,37.58
2022-11-08T03:11:23.655Z,38.08
2022-11-08T03:14:12.047Z,42.45
2022-11-08T03:15:27.249Z,36.78
2022-11-08T03:16:45.619Z,33.80
2022-11-08T03:18:06.514Z,40.97
2022-11-08T03:23:54.792Z,34.05
2022-11-08T03:26:09.742Z,35.78
2022-11-08T03:30:33.598Z,35.47
2022-11-08T03:32:21.506Z,33.22
2022-11-08T03:33:32.293Z,28.85
2022-11-08T03:34:47.116Z,32.05
2022-11-08T03:41:10.252Z,27.63
2022-11-08T03:44:11.949Z,22.15
2022-11-08T03:45:15.999Z,29.55
2022-11-08T03:48:22.501Z,28.83
2022-11-08T03:49:59.227Z,26.02
2022-11-08T03:53:06.757Z,27.55
2022-11-08T03:54:36.665Z,26.98
2022-11-08T03:58:00.198Z,27.98
2022-11-08T04:01:01.713Z,25.95
2022-11-08T04:02:05.030Z,28.70
2022-11-08T04:05:35.399Z,25.73
2022-11-08T04:06:40.060Z,29.55
2022-11-08T04:07:46.673Z,21.08
2022-11-08T04:08:48.975Z,23.48
2022-11-08T04:10:07.823Z,28.17
2022-11-08T04:11:29.597Z,24.15
2022-11-08T04:14:12.707Z,21.23
2022-11-08T04:15:21.931Z,24.77
2022-11-08T04:16:27.187Z,25.40
2022-11-08T04:17:52.010Z,22.17
2022-11-08T04:19:19.629Z,19.27
2022-11-08T04:20:41.002Z,25.80
2022-11-08T04:22:13.596Z,21.80
2022-11-08T04:23:25.328Z,21.67
2022-11-08T04:25:05.281Z,22.35
2022-11-08T04:27:56.536Z,21.88
2022-11-08T04:29:20.826Z,21.75
2022-11-08T04:30:27.825Z,20.95
2022-11-08T04:31:54.679Z,21.35
2022-11-08T04:33:00.102Z,21.70
2022-11-08T04:34:32.698Z,22.67
2022-11-08T04:39:20.473Z,21.83
2022-11-08T04:40:24.270Z,22.25
2022-11-08T04:41:28.733Z,26.30
2022-11-08T04:42:31.332Z,24.17
2022-11-08T04:43:40.358Z,24.40
2022-11-08T04:44:45.567Z,22.48
2022-11-08T04:45:51.205Z,23.02
2022-11-08T04:47:08.152Z,23.27
2022-11-08T04:48:26.032Z,21.13
2022-11-08T04:49:37.674Z,18.70
2022-11-08T04:50:43.136Z,22.20
2022-11-08T04:53:51.685Z,20.55
2022-11-08T04:54:58.475Z,20.65
2022-11-08T04:56:27.432Z,21.88
2022-11-08T04:58:02.125Z,20.35
2022-11-08T05:02:40.965Z,21.50
2022-11-08T05:04:07.434Z,20.10
2022-11-08T05:05:12.103Z,19.38
2022-11-08T05:09:21.864Z,22.85
2022-11-08T05:10:33.715Z,20.20
2022-11-08T05:11:45.831Z,19.70
2022-11-08T05:13:09.031Z,17.35
2022-11-08T05:14:19.803Z,16.48
2022-11-08T05:15:30.353Z,23.33
2022-11-08T05:16:46.756Z,20.15
2022-11-08T05:17:56.818Z,22.67
2022-11-08T05:19:08.053Z,23.60
2022-11-08T05:20:40.251Z,20.40
2022-11-08T05:22:07.620Z,19.95
2022-11-08T05:23:25.532Z,23.50
2022-11-08T05:24:28.059Z,24.75
2022-11-08T05:25:32.864Z,22.25
2022-11-08T05:26:37.750Z,20.50
2022-11-08T05:27:40.004Z,22.25
2022-11-08T05:28:42.009Z,20.00
2022-11-08T05:29:44.123Z,24.10
2022-11-08T05:30:56.236Z,18.48
2022-11-08T05:31:58.500Z,18.45
2022-11-08T05:33:01.657Z,24.02
2022-11-08T05:34:11.520Z,21.63
2022-11-08T05:35:14.122Z,17.10
2022-11-08T05:36:17.069Z,19.38
2022-11-08T05:37:19.739Z,19.42
2022-11-08T05:38:22.062Z,21.33
2022-11-08T05:39:28.279Z,17.90
2022-11-08T05:40:35.424Z,20.40
2022-11-08T05:41:45.484Z,18.10
2022-11-08T05:42:49.313Z,20.48
2022-11-08T05:43:53.104Z,21.90
2022-11-08T05:45:05.241Z,17.85
2022-11-08T05:46:18.649Z,20.83
2022-11-08T05:47:31.354Z,17.23
2022-11-08T05:48:53.510Z,20.25
2022-11-08T05:50:06.774Z,19.85
2022-11-08T05:51:09.390Z,20.17
2022-11-08T05:52:17.628Z,18.70
2022-11-08T05:53:21.943Z,20.42
2022-11-08T05:54:30.657Z,20.90
2022-11-08T05:55:40.754Z,21.08
2022-11-08T05:56:48.070Z,19.48
2022-11-08T05:57:52.055Z,21.05
2022-11-08T05:58:56.844Z,21.17
2022-11-08T06:00:01.761Z,19.35
2022-11-08T06:01:08.529Z,18.65
2022-11-08T06:02:21.300Z,19.15
2022-11-08T06:03:32.379Z,16.23
2022-11-08T06:04:35.834Z,16.70
2022-11-08T06:05:42.763Z,22.40
2022-11-08T06:06:55.247Z,21.95
2022-11-08T06:07:59.261Z,19.23
2022-11-08T06:09:03.513Z,17.98
2022-11-08T06:10:07.590Z,20.40
2022-11-08T06:11:19.103Z,23.00
2022-11-08T06:12:22.263Z,21.85
2022-11-08T06:13:27.005Z,20.50
2022-11-08T06:14:30.067Z,16.48
2022-11-08T06:15:32.803Z,20.50
2022-11-08T06:16:35.140Z,20.75
2022-11-08T06:17:42.271Z,15.80
2022-11-08T06:18:47.282Z,19.33
2022-11-08T06:19:50.915Z,23.40
2022-11-08T06:20:53.472Z,20.60
2022-11-08T06:21:59.514Z,26.33
2022-11-08T06:23:06.259Z,14.60
2022-11-08T06:24:11.078Z,20.13
2022-11-08T06:25:30.970Z,15.52
2022-11-08T06:26:34.478Z,16.48
2022-11-08T06:27:42.106Z,14.85
2022-11-08T06:28:45.749Z,21.00
2022-11-08T06:30:00.965Z,19.52
2022-11-08T06:31:09.286Z,19.63
2022-11-08T06:32:21.149Z,19.95
2022-11-08T06:33:43.338Z,14.07
2022-11-08T06:34:50.574Z,18.00
2022-11-08T06:35:53.472Z,15.18
2022-11-08T06:38:16.384Z,15.93
2022-11-08T06:39:18.929Z,14.68
2022-11-08T06:40:21.753Z,16.45
2022-11-08T06:41:27.716Z,20.70
2022-11-08T06:42:31.309Z,18.30
2022-11-08T06:43:38.586Z,21.38
2022-11-08T06:44:41.671Z,17.98
2022-11-08T06:45:45.421Z,17.88
2022-11-08T06:46:48.582Z,16.63
2022-11-08T06:47:58.391Z,17.48
2022-11-08T06:49:09.352Z,16.52
2022-11-08T06:50:16.451Z,16.80
2022-11-08T06:51:19.987Z,15.57
2022-11-08T06:52:31.989Z,16.98
2022-11-08T06:53:36.002Z,16.30
2022-11-08T06:54:40.749Z,17.88
2022-11-08T06:55:44.427Z,15.98
2022-11-08T06:56:47.448Z,16.02
2022-11-08T06:57:53.129Z,17.70
2022-11-08T06:58:56.670Z,17.08
2022-11-08T07:00:00.120Z,18.33
2022-11-08T07:01:06.752Z,14.35
2022-11-08T07:02:11.688Z,18.85
2022-11-08T07:03:15.304Z,17.35
2022-11-08T07:04:21.679Z,16.48
2022-11-08T07:05:25.903Z,15.05
2022-11-08T07:06:32.507Z,16.10
2022-11-08T07:07:42.172Z,15.02
2022-11-08T07:08:51.151Z,15.20
2022-11-08T07:09:57.405Z,18.02
2022-11-08T07:11:04.410Z,15.98
2022-11-08T07:12:26.461Z,17.45
2022-11-08T07:13:29.122Z,15.70
2022-11-08T07:14:32.109Z,21.23
2022-11-08T07:15:37.876Z,18.33
2022-11-08T07:16:50.347Z,18.63
2022-11-08T07:19:20.097Z,18.52
2022-11-08T07:20:22.643Z,18.40
2022-11-08T07:21:25.294Z,14.45
2022-11-08T07:22:27.247Z,24.42
2022-11-08T07:23:30.395Z,15.57
2022-11-08T07:24:33.836Z,14.30
2022-11-08T07:25:38.572Z,12.80
2022-11-08T07:26:40.700Z,21.23
2022-11-08T07:27:42.691Z,17.08
2022-11-08T07:28:49.602Z,15.10
2022-11-08T07:29:52.656Z,15.13
2022-11-08T07:31:00.399Z,14.68
2022-11-08T07:32:05.206Z,11.88
2022-11-08T07:33:07.480Z,14.13
2022-11-08T07:34:13.027Z,16.17
2022-11-08T07:35:24.580Z,14.23
2022-11-08T07:36:28.729Z,13.25
2022-11-08T07:37:37.111Z,16.25
2022-11-08T07:38:43.171Z,12.57
2022-11-08T07:54:49.455Z,19.58
2022-11-08T07:59:55.851Z,18.42
2022-11-08T08:12:36.276Z,12.68
2022-11-08T08:14:30.295Z,12.43
2022-11-08T08:18:06.275Z,16.42
2022-11-08T08:20:16.437Z,12.63
2022-11-08T08:23:34.270Z,11.60
2022-11-08T08:24:58.218Z,15.55
2022-11-08T08:26:12.742Z,11.40
2022-11-08T08:28:19.806Z,15.05
2022-11-08T08:45:32.566Z,13.02
2022-11-08T08:57:21.696Z,13.00
2022-11-08T09:11:09.937Z,18.27
2022-11-08T09:12:17.247Z,11.23
2022-11-08T09:13:21.404Z,16.30
2022-11-08T09:14:42.669Z,16.80
2022-11-08T09:15:53.282Z,20.27
2022-11-08T09:17:06.587Z,17.88
2022-11-08T09:18:10.897Z,17.20
2022-11-08T09:19:12.896Z,17.13
2022-11-08T09:20:15.528Z,15.82
2022-11-08T09:21:18.090Z,18.85
2022-11-08T09:22:21.819Z,16.58
2022-11-08T09:23:24.118Z,15.00
2022-11-08T09:24:34.100Z,13.13
2022-11-08T09:25:36.617Z,16.90
2022-11-08T09:26:38.660Z,21.27
2022-11-08T09:27:40.729Z,15.40
2022-11-08T09:28:43.446Z,21.17
2022-11-08T09:29:51.173Z,18.52
2022-11-08T09:31:01.301Z,13.95
2022-11-08T09:32:06.380Z,17.00
2022-11-08T09:33:11.779Z,14.75
2022-11-08T09:34:16.381Z,15.75
2022-11-08T09:35:23.753Z,12.85
2022-11-08T09:36:29.848Z,16.40
2022-11-08T09:37:33.128Z,15.38
2022-11-08T09:38:39.199Z,21.23
2022-11-08T09:39:41.613Z,16.58
2022-11-08T09:41:12.220Z,14.45
2022-11-08T09:42:35.586Z,19.10
2022-11-08T09:44:27.170Z,17.90
2022-11-08T09:46:51.473Z,16.77
2022-11-08T09:48:27.657Z,20.30
2022-11-08T09:49:37.294Z,19.10
2022-11-08T09:50:43.752Z,18.17
2022-11-08T09:51:46.923Z,18.38
2022-11-08T09:53:15.116Z,18.75
2022-11-08T09:54:43.225Z,20.08
2022-11-08T09:55:56.886Z,17.90
2022-11-08T09:57:06.662Z,20.35
2022-11-08T09:58:14.359Z,20.55
2022-11-08T09:59:30.777Z,21.13
2022-11-08T10:00:37.353Z,20.52
2022-11-08T10:01:41.091Z,16.85
2022-11-08T10:02:43.243Z,18.08
2022-11-08T10:03:53.470Z,21.20
2022-11-08T10:05:04.025Z,23.30
2022-11-08T10:06:44.008Z,13.90
2022-11-08T10:07:57.583Z,22.80
2022-11-08T10:09:21.649Z,13.80
2022-11-08T10:11:00.596Z,16.60
2022-11-08T10:12:25.403Z,15.43
2022-11-08T10:13:48.814Z,24.23
2022-11-08T10:15:16.718Z,20.88
2022-11-08T10:16:47.261Z,20.10
2022-11-08T10:18:27.723Z,27.60
2022-11-08T10:19:52.749Z,22.60
2022-11-08T10:21:17.343Z,19.42
2022-11-08T10:22:31.400Z,15.15
2022-11-08T10:24:08.400Z,22.35
2022-11-08T10:25:45.144Z,15.50
2022-11-08T10:27:22.466Z,22.92
2022-11-08T10:28:38.605Z,19.65
2022-11-08T10:29:56.565Z,26.20
2022-11-08T10:31:03.911Z,22.75
2022-11-08T10:32:14.369Z,19.63
2022-11-08T10:33:20.807Z,16.95
2022-11-08T10:34:29.535Z,19.15
2022-11-08T10:38:06.634Z,20.00
2022-11-08T10:39:49.388Z,17.42
2022-11-08T10:41:42.528Z,21.08
2022-11-08T10:43:09.961Z,19.52
2022-11-08T10:44:24.575Z,14.93
2022-11-08T10:45:26.669Z,16.77
2022-11-08T10:46:34.890Z,26.85
2022-11-08T10:47:37.858Z,23.92
2022-11-08T10:48:40.630Z,17.80
2022-11-08T10:49:44.248Z,13.90
2022-11-08T10:50:50.912Z,19.50
2022-11-08T10:51:55.382Z,20.27
2022-11-08T10:53:02.362Z,16.63
2022-11-08T10:55:25.156Z,14.13
2022-11-08T10:56:28.189Z,16.77
2022-11-08T10:57:33.194Z,14.73
2022-11-08T10:58:40.738Z,16.63
2022-11-08T10:59:43.802Z,10.48
2022-11-08T11:01:06.626Z,12.20
2022-11-08T11:02:32.088Z,16.77
2022-11-08T11:03:34.189Z,14.55
2022-11-08T11:04:36.090Z,10.98
2022-11-08T11:05:42.777Z,14.82
2022-11-08T11:06:44.637Z,16.40
2022-11-08T11:08:02.118Z,12.32
2022-11-08T11:09:19.311Z,16.45
2022-11-08T11:10:24.017Z,16.10
2022-11-08T11:11:31.734Z,15.38
2022-11-08T11:12:33.563Z,13.40
2022-11-08T11:13:35.766Z,10.18
2022-11-08T11:14:37.688Z,15.40
2022-11-08T11:15:52.811Z,13.43
2022-11-08T11:17:03.533Z,14.55
2022-11-08T11:18:18.677Z,12.20
2022-11-08T11:19:21.076Z,15.10
2022-11-08T11:20:24.099Z,14.00
2022-11-08T11:21:25.910Z,9.70
2022-11-08T11:22:33.621Z,15.70
2022-11-08T11:23:39.712Z,12.45
2022-11-08T11:24:51.641Z,15.30
2022-11-08T11:25:53.447Z,19.08
2022-11-08T11:26:57.782Z,14.90
2022-11-08T11:28:00.850Z,18.42
2022-11-08T11:29:05.840Z,15.02
2022-11-08T11:30:24.123Z,19.73
2022-11-08T11:31:26.382Z,10.32
2022-11-08T11:32:35.897Z,15.73
2022-11-08T11:33:46.196Z,17.65
2022-11-08T11:34:59.745Z,12.20
2022-11-08T11:36:06.061Z,17.30
2022-11-08T11:37:22.628Z,13.60
2022-11-08T11:38:38.238Z,21.85
2022-11-08T11:39:52.213Z,14.13
2022-11-08T11:40:56.922Z,15.98
2022-11-08T11:42:24.044Z,21.40
2022-11-08T11:43:44.204Z,14.48
2022-11-08T11:45:06.636Z,12.35
2022-11-08T11:46:23.669Z,14.88
2022-11-08T11:47:38.273Z,14.85
2022-11-08T11:48:47.933Z,15.73
2022-11-08T11:49:53.753Z,14.40
2022-11-08T11:50:57.723Z,17.55
2022-11-08T11:51:59.564Z,8.32
2022-11-08T11:53:07.905Z,16.10
2022-11-08T11:54:16.599Z,18.42
2022-11-08T11:55:18.840Z,11.63
2022-11-08T11:56:47.796Z,13.70
2022-11-08T11:58:01.510Z,9.80
2022-11-08T11:59:21.443Z,15.20
2022-11-08T12:00:23.830Z,19.65
2022-11-08T12:01:37.568Z,13.20
2022-11-08T12:03:01.616Z,15.73
2022-11-08T12:04:39.747Z,13.65
2022-11-08T12:06:09.315Z,9.20
2022-11-08T12:09:16.747Z,16.27
2022-11-08T12:11:27.742Z,10.45
2022-11-08T12:14:11.776Z,7.88
2022-11-08T12:22:52.336Z,13.30
2022-11-08T12:24:14.022Z,17.25
2022-11-08T12:25:35.318Z,15.98
2022-11-08T12:27:22.338Z,7.93
2022-11-08T12:28:24.581Z,12.10
2022-11-08T12:29:30.962Z,13.32
2022-11-08T12:31:20.296Z,13.60
2022-11-08T12:32:39.799Z,10.50
2022-11-08T12:33:52.762Z,13.00
2022-11-08T12:35:39.466Z,17.77
2022-11-08T12:37:38.940Z,14.93
2022-11-08T12:39:45.499Z,10.52
2022-11-08T12:41:32.320Z,19.85
2022-11-08T12:43:02.780Z,14.60
2022-11-08T12:44:36.061Z,15.37
2022-11-08T12:45:57.307Z,20.13
2022-11-08T12:47:24.674Z,22.10
2022-11-08T12:49:03.854Z,12.60
2022-11-08T12:50:09.089Z,13.02
2022-11-08T12:51:42.946Z,11.77
2022-11-08T12:53:02.409Z,13.27
2022-11-08T12:54:21.965Z,14.43
2022-11-08T12:55:30.544Z,13.70
2022-11-08T12:56:41.515Z,17.02
2022-11-08T12:58:12.744Z,22.88
2022-11-08T12:59:29.250Z,18.42
2022-11-08T13:00:32.460Z,11.30
2022-11-08T13:01:37.551Z,13.55
2022-11-08T13:02:43.328Z,12.95
2022-11-08T13:03:50.781Z,13.27
2022-11-08T13:05:10.781Z,19.23
2022-11-08T13:06:27.155Z,14.98
2022-11-08T13:07:41.539Z,12.95
2022-11-08T13:08:56.951Z,13.43
2022-11-08T13:10:15.323Z,15.30
2022-11-08T13:11:45.336Z,14.73
2022-11-08T13:13:00.454Z,17.20
2022-11-08T13:14:05.729Z,12.32
2022-11-08T13:15:17.821Z,13.23
2022-11-08T13:16:26.176Z,19.88
2022-11-08T13:17:33.256Z,19.17
2022-11-08T13:18:47.638Z,17.17
2022-11-08T13:20:05.858Z,17.15
2022-11-08T13:21:55.206Z,17.02
2022-11-08T13:23:16.920Z,11.75
2022-11-08T13:24:46.831Z,14.55
2022-11-08T13:25:49.496Z,12.55
2022-11-08T13:26:58.384Z,19.13
2022-11-08T13:28:37.835Z,20.73
2022-11-08T13:29:48.246Z,16.67
2022-11-08T13:30:59.962Z,16.05
2022-11-08T13:32:21.677Z,13.15
2022-11-08T13:33:31.842Z,11.07
2022-11-08T13:35:06.747Z,14.48
2022-11-08T13:36:32.325Z,14.75
2022-11-08T13:37:55.568Z,12.98
2022-11-08T13:39:59.529Z,10.95
2022-11-08T13:41:28.909Z,10.45
2022-11-08T13:42:40.117Z,12.00
2022-11-08T13:44:00.361Z,18.50
2022-11-08T13:45:18.741Z,11.75
2022-11-08T13:46:42.023Z,12.57
2022-11-08T13:47:51.936Z,10.27
2022-11-08T13:49:09.929Z,16.98
2022-11-08T13:50:50.612Z,12.68
2022-11-08T13:52:36.305Z,9.80
2022-11-08T13:54:22.201Z,10.25
2022-11-08T13:55:59.779Z,11.68
2022-11-08T13:57:20.200Z,11.57
2022-11-08T13:59:24.447Z,14.38
2022-11-08T14:01:21.751Z,13.35
2022-11-08T14:03:25.192Z,15.00
2022-11-08T14:04:51.948Z,18.63
2022-11-08T14:06:28.799Z,13.57
2022-11-08T14:08:20.967Z,13.88
2022-11-08T14:10:14.764Z,13.48
2022-11-08T14:11:17.911Z,9.82
2022-11-08T14:12:55.276Z,14.68
2022-11-08T14:14:26.719Z,14.93
2022-11-08T14:15:34.961Z,12.27
2022-11-08T14:16:58.177Z,11.82
2022-11-08T14:18:42.199Z,8.85
2022-11-08T14:19:52.260Z,17.42
2022-11-08T14:20:57.603Z,15.20
2022-11-08T14:22:02.021Z,11.10
2022-11-08T14:23:20.322Z,15.63
2022-11-08T14:24:35.250Z,13.02
2022-11-08T14:25:39.448Z,11.63
2022-11-08T14:26:48.266Z,14.32
2022-11-08T14:27:50.722Z,13.65
2022-11-08T14:28:54.444Z,11.85
2022-11-08T14:30:00.650Z,12.43
2022-11-08T14:31:08.342Z,10.52
2022-11-08T14:32:20.981Z,17.08
2022-11-08T14:33:24.389Z,13.68
2022-11-08T14:34:33.416Z,15.57
2022-11-08T14:35:35.824Z,15.75
2022-11-08T14:36:39.339Z,14.45
2022-11-08T14:37:46.437Z,12.52
2022-11-08T14:38:56.556Z,16.05
2022-11-08T14:39:59.912Z,13.15
2022-11-08T14:41:07.708Z,15.88
2022-11-08T14:42:24.528Z,13.70
2022-11-08T14:43:30.095Z,16.45
2022-11-08T14:44:36.004Z,11.00
2022-11-08T14:45:46.433Z,14.52
2022-11-08T14:46:49.097Z,12.85
2022-11-08T14:48:04.925Z,19.98
2022-11-08T14:49:20.417Z,16.90
2022-11-08T14:50:24.540Z,17.40
2022-11-08T14:51:29.221Z,11.07
2022-11-08T14:52:38.773Z,14.10
2022-11-08T14:53:53.710Z,14.68
2022-11-08T14:55:03.125Z,14.98
2022-11-08T14:56:21.231Z,14.15
2022-11-08T14:57:30.648Z,14.65
2022-11-08T14:58:32.652Z,10.10
2022-11-08T14:59:35.594Z,11.25
2022-11-08T15:00:37.929Z,15.40
2022-11-08T15:01:41.591Z,17.83
2022-11-08T15:02:47.121Z,13.00
2022-11-08T15:03:54.638Z,13.10
2022-11-08T15:04:56.513Z,13.65
2022-11-08T15:06:01.755Z,15.43
2022-11-08T15:07:09.372Z,16.88
2022-11-08T15:08:27.911Z,19.33
2022-11-08T15:09:35.282Z,17.23
2022-11-08T15:10:40.674Z,15.25
2022-11-08T15:11:52.623Z,15.90
2022-11-08T15:12:55.692Z,16.90
2022-11-08T15:14:06.126Z,12.63
2022-11-08T15:15:30.125Z,15.50
2022-11-08T15:16:48.999Z,13.70
2022-11-08T15:18:16.607Z,12.73
2022-11-08T15:19:42.642Z,14.80
2022-11-08T15:21:03.936Z,20.35
2022-11-08T15:22:26.512Z,18.90
2022-11-08T15:23:52.688Z,18.83
2022-11-08T15:25:17.248Z,17.85
2022-11-08T15:26:27.234Z,16.95
2022-11-08T15:27:29.957Z,16.63
2022-11-08T15:28:35.680Z,16.70
2022-11-08T15:30:00.027Z,16.33
2022-11-08T15:31:04.796Z,13.75
2022-11-08T15:32:19.425Z,13.15
2022-11-08T15:33:23.828Z,18.05
2022-11-08T15:34:39.286Z,15.43
2022-11-08T15:35:41.361Z,11.40
2022-11-08T15:36:43.866Z,14.82
2022-11-08T15:37:51.113Z,13.85
2022-11-08T15:38:53.580Z,15.73
2022-11-08T15:39:56.601Z,12.05
2022-11-08T15:41:05.970Z,14.98
2022-11-08T15:42:14.078Z,13.10
2022-11-08T15:43:31.324Z,13.23
2022-11-08T15:44:33.574Z,15.00
2022-11-08T15:45:38.644Z,16.13
2022-11-08T15:46:41.941Z,15.95
2022-11-08T15:47:46.915Z,16.75
2022-11-08T15:48:56.938Z,15.27
2022-11-08T15:50:00.314Z,14.80
2022-11-08T15:51:06.213Z,12.98
2022-11-08T15:52:08.231Z,12.85
2022-11-08T15:53:10.307Z,12.18
2022-11-08T15:54:12.698Z,13.20
2022-11-08T15:55:23.665Z,13.52
2022-11-08T15:56:25.531Z,13.20
2022-11-08T15:57:27.868Z,15.07
2022-11-08T15:58:33.712Z,16.00
2022-11-08T15:59:37.289Z,11.48
2022-11-08T16:00:46.105Z,11.40
2022-11-08T16:02:12.802Z,13.52
2022-11-08T16:03:15.563Z,12.43
2022-11-08T16:04:17.448Z,11.13
2022-11-08T16:05:25.695Z,12.20
2022-11-08T16:06:27.588Z,11.82
2022-11-08T16:07:31.475Z,12.40
2022-11-08T16:08:33.332Z,9.38
2022-11-08T16:09:35.183Z,8.95
2022-11-08T16:10:43.882Z,12.32
2022-11-08T16:11:48.462Z,8.00
2022-11-08T16:12:50.330Z,8.77
2022-11-08T16:13:52.446Z,8.45
2022-11-08T16:14:58.002Z,9.32
2022-11-08T16:16:01.119Z,11.63
2022-11-08T16:17:03.138Z,10.52
2022-11-08T16:18:05.113Z,12.52
2022-11-08T16:19:24.989Z,18.30
2022-11-08T16:20:34.031Z,22.75
2022-11-08T16:21:36.470Z,25.73
2022-11-08T16:22:46.180Z,27.90
2022-11-08T16:23:48.411Z,26.50
2022-11-08T16:24:51.460Z,27.27
2022-11-08T16:25:56.522Z,28.95
2022-11-08T16:27:01.529Z,25.70
2022-11-08T16:28:09.291Z,21.80
2022-11-08T16:29:22.573Z,25.55
2022-11-08T16:30:25.501Z,17.73
2022-11-08T16:31:39.652Z,18.52
2022-11-08T16:32:43.213Z,21.17
2022-11-08T16:33:46.769Z,21.05
2022-11-08T16:34:48.838Z,22.30
2022-11-08T16:35:53.720Z,20.77
2022-11-08T16:36:55.613Z,20.35
2022-11-08T16:37:57.382Z,15.50
2022-11-08T16:39:02.856Z,15.05
2022-11-08T16:40:32.116Z,17.05
2022-11-08T16:41:37.645Z,21.83
2022-11-08T16:42:42.059Z,24.35
2022-11-08T16:43:44.753Z,17.00
2022-11-08T16:44:47.077Z,18.42
2022-11-08T16:46:04.824Z,17.85
2022-11-08T16:47:16.409Z,17.13
2022-11-08T16:48:22.818Z,14.27
2022-11-08T16:49:25.351Z,15.45
2022-11-08T16:50:27.215Z,12.60
2022-11-08T16:51:30.630Z,13.93
2022-11-08T16:52:32.408Z,12.57
2022-11-08T16:53:35.851Z,11.23
2022-11-08T16:54:37.796Z,10.93
2022-11-08T16:55:40.189Z,17.52
2022-11-08T16:56:41.964Z,11.20
2022-11-08T16:57:44.946Z,12.57
2022-11-08T16:58:48.245Z,12.90
2022-11-08T16:59:50.155Z,10.95
2022-11-08T17:00:52.302Z,9.82
2022-11-08T17:01:54.320Z,14.88
2022-11-08T17:02:56.307Z,11.23
2022-11-08T17:03:59.183Z,14.23
2022-11-08T17:05:01.557Z,13.48
2022-11-08T17:06:03.624Z,12.35
2022-11-08T17:07:08.861Z,11.43
2022-11-08T17:08:13.438Z,12.13
2022-11-08T17:09:15.483Z,11.85
2022-11-08T17:10:19.824Z,13.48
2022-11-08T17:11:23.247Z,12.18
2022-11-08T17:12:25.117Z,13.80
2022-11-08T17:13:27.650Z,13.02
2022-11-08T17:14:29.397Z,15.68
2022-11-08T17:15:31.577Z,19.20
2022-11-08T17:16:33.567Z,15.10
2022-11-08T17:17:35.449Z,15.27
2022-11-08T17:18:37.195Z,17.23
2022-11-08T17:19:39.026Z,19.52
2022-11-08T17:20:41.445Z,20.65
2022-11-08T17:21:45.096Z,17.25
2022-11-08T17:22:48.666Z,16.15
2022-11-08T17:23:50.753Z,20.50
2022-11-08T17:24:52.744Z,17.65
2022-11-08T17:25:54.691Z,16.02
2022-11-08T17:26:56.490Z,15.13
2022-11-08T17:27:58.493Z,17.75
2022-11-08T17:29:00.654Z,12.93
2022-11-08T17:30:02.889Z,15.10
2022-11-08T17:31:15.158Z,13.10
2022-11-08T17:32:17.288Z,15.95
2022-11-08T17:33:19.476Z,13.18
2022-11-08T17:34:21.900Z,11.88
2022-11-08T17:35:23.835Z,10.10
2022-11-08T17:36:26.132Z,11.70
2022-11-08T17:37:28.304Z,11.90
2022-11-08T17:38:30.035Z,11.10
2022-11-08T17:39:32.579Z,11.05
2022-11-08T17:40:34.386Z,10.48
2022-11-08T17:41:36.242Z,11.95
2022-11-08T17:42:41.251Z,11.07
2022-11-08T17:43:43.641Z,11.13
2022-11-08T17:44:46.149Z,13.88
2022-11-08T17:45:53.716Z,10.73
2022-11-08T17:46:55.696Z,10.60
2022-11-08T17:47:57.751Z,12.30
2022-11-08T17:48:59.775Z,12.18
2022-11-08T17:50:01.805Z,11.23
2022-11-08T17:51:04.728Z,11.95
2022-11-08T17:52:07.124Z,12.75
2022-11-08T17:53:08.971Z,9.90
2022-11-08T17:54:11.323Z,9.23
2022-11-08T17:55:13.155Z,10.30